Terminal Aerodrome Forecast
Issued by NWS

Home | Current Version | Previous Version | Text Only | Print | Product List | Glossary On
Versions: 1 2 3 4 5 6 7 8 9 10 11 12 13 14 15 16 17 18 19 20
000
FTUS44 KLZK 031500 AAA
TAFBPK
TAF AMD
KBPK 031512Z 0315/0412 24005KT P6SM VCSH OVC015
     FM031800 26006KT P6SM VCSH SCT035 BKN050 OVC250
     FM032100 30006KT P6SM VCTS SCT035 BKN050CB OVC250
     FM040000 33006KT P6SM VCSH SCT035 BKN050 OVC250=

USA.gov is the U.S. government's official web portal to all federal, state and local government web resources and services.